createdAt,value
2023-02-21T00:02:42.180Z,14.35
2023-02-21T00:05:27.725Z,12.77
2023-02-21T00:08:14.425Z,13.25
2023-02-21T00:10:59.717Z,14.43
2023-02-21T00:13:45.028Z,14.07
2023-02-21T00:16:34.250Z,15.85
2023-02-21T00:19:19.484Z,14.23
2023-02-21T00:22:04.595Z,11.50
2023-02-21T00:24:51.386Z,14.25
2023-02-21T00:27:36.679Z,13.57
2023-02-21T00:30:23.027Z,14.32
2023-02-21T00:33:08.121Z,14.85
2023-02-21T00:35:53.400Z,14.65
2023-02-21T00:38:38.575Z,13.63
2023-02-21T00:41:25.588Z,12.93
2023-02-21T00:44:11.372Z,12.63
2023-02-21T00:46:56.608Z,14.20
2023-02-21T00:49:42.433Z,14.63
2023-02-21T00:52:28.298Z,14.55
2023-02-21T00:55:13.566Z,14.10
2023-02-21T00:58:00.309Z,13.10
2023-02-21T01:00:45.381Z,14.95
2023-02-21T01:03:30.815Z,14.55
2023-02-21T01:06:16.474Z,14.57
2023-02-21T01:09:02.653Z,16.98
2023-02-21T01:11:48.296Z,14.25
2023-02-21T01:14:35.346Z,14.02
2023-02-21T01:17:20.641Z,13.40
2023-02-21T01:20:06.127Z,14.10
2023-02-21T01:22:53.174Z,14.73
2023-02-21T01:25:39.572Z,14.77
2023-02-21T01:28:24.932Z,14.48
2023-02-21T01:31:11.415Z,15.02
2023-02-21T01:33:58.205Z,14.52
2023-02-21T01:36:44.624Z,16.25
2023-02-21T01:39:30.267Z,15.10
2023-02-21T01:42:16.023Z,15.35
2023-02-21T01:45:03.187Z,15.48
2023-02-21T01:47:50.892Z,14.68
2023-02-21T01:50:40.731Z,14.70
2023-02-21T01:53:29.638Z,14.40
2023-02-21T01:56:16.141Z,16.42
2023-02-21T01:59:02.742Z,15.30
2023-02-21T02:01:57.567Z,16.25
2023-02-21T02:04:44.589Z,16.13
2023-02-21T02:07:30.343Z,15.55
2023-02-21T02:10:15.437Z,15.23
2023-02-21T02:13:10.863Z,15.45
2023-02-21T02:15:50.544Z,15.07
2023-02-21T02:18:45.891Z,16.42
2023-02-21T02:21:51.470Z,16.02
2023-02-21T02:24:39.222Z,15.65
2023-02-21T02:27:36.685Z,16.63
2023-02-21T02:30:44.569Z,17.02
2023-02-21T02:33:41.360Z,17.17
2023-02-21T02:36:15.611Z,16.77
2023-02-21T02:38:54.133Z,16.98
2023-02-21T02:41:29.703Z,17.00
2023-02-21T02:44:05.822Z,18.23
2023-02-21T02:49:07.115Z,18.25
2023-02-21T02:51:37.347Z,17.02
2023-02-21T02:54:07.489Z,16.42
2023-02-21T02:56:36.968Z,16.95
2023-02-21T02:59:08.673Z,16.88
2023-02-21T03:02:01.507Z,17.95
2023-02-21T03:04:50.320Z,17.42
2023-02-21T03:07:26.948Z,18.25
2023-02-21T03:10:04.872Z,17.55
2023-02-21T03:12:39.867Z,17.98
2023-02-21T03:15:13.562Z,18.13
2023-02-21T03:17:44.694Z,18.27
2023-02-21T03:20:15.876Z,17.30
2023-02-21T03:22:46.868Z,18.55
2023-02-21T03:25:17.329Z,17.77
2023-02-21T03:27:48.755Z,18.85
2023-02-21T03:30:30.023Z,19.05
2023-02-21T03:32:59.028Z,17.33
2023-02-21T03:35:30.404Z,17.63
2023-02-21T03:38:00.785Z,18.95
2023-02-21T03:40:31.342Z,17.58
2023-02-21T03:43:02.361Z,17.40
2023-02-21T03:45:37.047Z,19.15
2023-02-21T03:48:26.161Z,19.35
2023-02-21T03:51:01.970Z,17.92
2023-02-21T03:53:37.066Z,17.85
2023-02-21T03:56:06.857Z,19.13
2023-02-21T03:58:49.966Z,18.33
2023-02-21T04:01:18.068Z,18.83
2023-02-21T04:03:45.992Z,18.83
2023-02-21T04:06:14.654Z,21.60
2023-02-21T04:08:43.887Z,19.08
2023-02-21T04:11:11.714Z,19.77
2023-02-21T04:13:42.498Z,18.60
2023-02-21T04:16:10.355Z,18.45
2023-02-21T04:18:39.318Z,16.77
2023-02-21T04:21:09.571Z,19.20
2023-02-21T04:23:37.907Z,20.30
2023-02-21T04:26:08.091Z,19.25
2023-02-21T04:28:42.426Z,22.23
2023-02-21T04:31:10.214Z,20.50
2023-02-21T04:33:38.277Z,20.27
2023-02-21T04:36:06.708Z,19.92
2023-02-21T04:38:41.852Z,19.40
2023-02-21T04:41:11.082Z,18.35
2023-02-21T04:43:39.256Z,20.27
2023-02-21T04:46:07.281Z,18.50
2023-02-21T04:48:35.130Z,19.95
2023-02-21T04:51:15.946Z,19.23
2023-02-21T04:53:44.527Z,17.17
2023-02-21T04:56:13.811Z,18.63
2023-02-21T04:58:45.689Z,19.48
2023-02-21T05:01:14.740Z,19.35
2023-02-21T05:03:42.728Z,18.95
2023-02-21T05:06:10.856Z,19.20
2023-02-21T05:11:08.793Z,19.02
2023-02-21T05:13:37.939Z,19.85
2023-02-21T05:16:06.351Z,17.48
2023-02-21T05:18:34.632Z,19.27
2023-02-21T05:21:03.457Z,20.05
2023-02-21T05:23:39.954Z,18.90
2023-02-21T05:26:10.188Z,19.08
2023-02-21T05:28:41.206Z,19.70
2023-02-21T05:31:09.752Z,20.20
2023-02-21T05:33:37.621Z,19.60
2023-02-21T05:36:06.167Z,19.70
2023-02-21T05:38:34.003Z,17.80
2023-02-21T05:41:01.896Z,19.65
2023-02-21T05:43:33.715Z,18.80
2023-02-21T05:46:03.014Z,19.80
2023-02-21T05:48:30.934Z,19.95
2023-02-21T05:50:58.681Z,20.17
2023-02-21T05:53:26.577Z,20.33
2023-02-21T05:55:54.327Z,21.00
2023-02-21T05:58:22.082Z,19.30
2023-02-21T06:00:49.825Z,20.58
2023-02-21T06:03:19.027Z,18.83
2023-02-21T06:05:46.805Z,18.73
2023-02-21T06:08:14.611Z,21.08
2023-02-21T06:10:42.446Z,20.48
2023-02-21T06:13:10.176Z,19.33
2023-02-21T06:15:38.011Z,20.10
2023-02-21T06:18:05.843Z,18.25
2023-02-21T06:20:35.013Z,19.80
2023-02-21T06:23:02.832Z,21.90
2023-02-21T06:25:30.604Z,20.10
2023-02-21T06:27:58.501Z,18.10
2023-02-21T06:30:26.550Z,20.63
2023-02-21T06:32:54.327Z,20.00
2023-02-21T06:35:22.119Z,20.38
2023-02-21T06:37:51.313Z,20.55
2023-02-21T06:40:19.212Z,21.63
2023-02-21T06:42:47.468Z,20.60
2023-02-21T06:45:15.246Z,20.08
2023-02-21T06:47:43.062Z,18.92
2023-02-21T06:50:10.952Z,20.80
2023-02-21T06:52:38.744Z,20.67
2023-02-21T06:55:08.955Z,22.55
2023-02-21T06:57:36.751Z,20.13
2023-02-21T07:00:05.199Z,18.73
2023-02-21T07:02:33.020Z,19.83
2023-02-21T07:05:00.872Z,23.13
2023-02-21T07:07:28.699Z,22.35
2023-02-21T07:09:56.477Z,22.10
2023-02-21T07:12:25.655Z,20.85
2023-02-21T07:14:53.464Z,21.52
2023-02-21T07:17:21.297Z,22.58
2023-02-21T07:19:49.078Z,21.38
2023-02-21T07:22:16.828Z,22.17
2023-02-21T07:24:44.627Z,21.10
2023-02-21T07:27:12.404Z,20.90
2023-02-21T07:29:41.572Z,22.70
2023-02-21T07:32:09.334Z,22.10
2023-02-21T07:34:37.176Z,23.00
2023-02-21T07:37:04.946Z,21.90
2023-02-21T07:39:32.722Z,22.55
2023-02-21T07:42:00.456Z,22.67
2023-02-21T07:44:32.340Z,22.75
2023-02-21T07:47:01.723Z,21.25
2023-02-21T07:49:29.624Z,21.17
2023-02-21T07:51:57.372Z,23.05
2023-02-21T07:54:25.155Z,23.30
2023-02-21T07:56:53.199Z,22.58
2023-02-21T07:59:20.960Z,21.52
2023-02-21T08:01:48.993Z,22.15
2023-02-21T08:04:21.054Z,22.80
2023-02-21T08:06:49.338Z,24.05
2023-02-21T08:09:17.339Z,22.70
2023-02-21T08:11:45.162Z,23.48
2023-02-21T08:14:12.974Z,22.77
2023-02-21T08:16:40.785Z,22.05
2023-02-21T08:19:09.784Z,22.17
2023-02-21T08:21:39.381Z,22.83
2023-02-21T08:24:07.135Z,24.10
2023-02-21T08:26:34.938Z,22.50
2023-02-21T08:29:03.761Z,23.20
2023-02-21T08:31:31.623Z,23.05
2023-02-21T08:33:59.529Z,21.75
2023-02-21T08:36:32.831Z,23.92
2023-02-21T08:39:01.979Z,23.10
2023-02-21T08:41:36.768Z,21.45
2023-02-21T08:44:04.560Z,23.23
2023-02-21T08:46:32.459Z,21.17
2023-02-21T08:49:00.277Z,21.52
2023-02-21T08:51:28.672Z,18.90
2023-02-21T08:53:56.552Z,21.52
2023-02-21T08:56:26.696Z,20.58
2023-02-21T08:58:55.132Z,18.85
2023-02-21T09:01:24.045Z,19.17
2023-02-21T09:03:52.269Z,18.77
2023-02-21T09:06:20.109Z,18.23
2023-02-21T09:08:47.852Z,18.67
2023-02-21T09:11:15.904Z,18.40
2023-02-21T09:16:12.829Z,17.50
2023-02-21T09:18:40.644Z,16.50
2023-02-21T09:21:08.469Z,18.08
2023-02-21T09:23:36.266Z,18.08
2023-02-21T09:26:04.070Z,18.73
2023-02-21T09:28:32.309Z,17.00
2023-02-21T09:31:01.501Z,18.02
2023-02-21T09:33:30.907Z,17.15
2023-02-21T09:35:58.680Z,17.77
2023-02-21T09:38:26.454Z,17.67
2023-02-21T09:40:59.120Z,16.98
2023-02-21T09:43:34.159Z,17.83
2023-02-21T09:46:06.363Z,15.85
2023-02-21T09:48:34.678Z,17.38
2023-02-21T09:51:06.556Z,17.60
2023-02-21T09:53:38.169Z,16.35
2023-02-21T09:56:12.434Z,17.38
2023-02-21T09:58:43.303Z,16.50
2023-02-21T10:01:31.344Z,17.73
2023-02-21T10:04:08.792Z,16.17
2023-02-21T10:06:44.669Z,16.52
2023-02-21T10:09:25.767Z,16.33
2023-02-21T10:12:02.605Z,16.75
2023-02-21T10:14:38.377Z,16.70
2023-02-21T10:17:16.835Z,15.90
2023-02-21T10:19:48.308Z,17.15
2023-02-21T10:22:20.958Z,17.50
2023-02-21T10:24:49.673Z,16.80
2023-02-21T10:27:20.001Z,16.92
2023-02-21T10:29:54.632Z,16.23
2023-02-21T10:32:25.529Z,18.50
2023-02-21T10:34:55.445Z,17.35
2023-02-21T10:37:35.088Z,16.42
2023-02-21T10:40:08.980Z,16.73
2023-02-21T10:42:42.471Z,16.95
2023-02-21T10:45:13.357Z,16.55
2023-02-21T10:47:54.717Z,18.10
2023-02-21T10:50:42.408Z,16.05
2023-02-21T10:53:10.990Z,15.25
2023-02-21T10:55:38.891Z,15.88
2023-02-21T10:58:10.434Z,17.45
2023-02-21T11:00:42.083Z,17.63
2023-02-21T11:06:48.293Z,8.90
2023-02-21T11:09:32.227Z,9.98
2023-02-21T11:12:06.512Z,9.60
2023-02-21T11:14:35.625Z,7.13
2023-02-21T11:17:16.418Z,6.22
2023-02-21T11:19:50.398Z,5.93
2023-02-21T11:22:22.330Z,5.30
2023-02-21T11:25:02.181Z,5.45
2023-02-21T11:27:32.511Z,5.47
2023-02-21T11:30:02.620Z,5.45
2023-02-21T11:32:36.355Z,5.20
2023-02-21T11:35:07.838Z,5.38
2023-02-21T11:37:49.977Z,4.50
2023-02-21T11:40:35.649Z,5.45
2023-02-21T11:43:17.789Z,5.50
2023-02-21T11:46:05.243Z,5.03
2023-02-21T11:48:38.372Z,4.32
2023-02-21T11:51:15.061Z,5.80
2023-02-21T11:53:45.084Z,4.80
2023-02-21T11:56:21.532Z,5.18
2023-02-21T11:58:59.008Z,5.55
2023-02-21T12:01:32.883Z,5.20
2023-02-21T12:04:29.377Z,5.40
2023-02-21T12:07:05.787Z,5.57
2023-02-21T12:09:45.112Z,4.90
2023-02-21T12:12:28.615Z,4.72
2023-02-21T12:15:07.058Z,5.30
2023-02-21T12:17:52.146Z,5.38
2023-02-21T12:20:28.869Z,5.30
2023-02-21T12:23:18.057Z,5.68
2023-02-21T12:26:13.274Z,4.97
2023-02-21T12:28:59.543Z,5.10
2023-02-21T12:31:39.649Z,5.93
2023-02-21T12:34:17.930Z,4.80
2023-02-21T12:37:03.959Z,5.43
2023-02-21T12:39:56.146Z,5.50
2023-02-21T12:42:41.939Z,4.95
2023-02-21T12:45:23.454Z,5.10
2023-02-21T12:47:57.995Z,5.47
2023-02-21T12:50:33.468Z,5.28
2023-02-21T12:53:04.527Z,5.38
2023-02-21T12:55:35.660Z,5.78
2023-02-21T12:58:14.075Z,5.20
2023-02-21T13:00:47.592Z,5.28
2023-02-21T13:03:27.674Z,4.95
2023-02-21T13:06:00.482Z,4.82
2023-02-21T13:08:33.124Z,5.45
2023-02-21T13:11:11.267Z,5.20
2023-02-21T13:13:40.846Z,5.00
2023-02-21T13:16:12.991Z,5.75
2023-02-21T13:18:44.815Z,5.57
2023-02-21T13:21:24.299Z,5.63
2023-02-21T13:23:57.285Z,5.22
2023-02-21T13:26:45.733Z,5.47
2023-02-21T13:29:20.892Z,5.40
2023-02-21T13:32:00.155Z,6.20
2023-02-21T13:34:31.531Z,6.38
2023-02-21T13:37:05.998Z,5.47
2023-02-21T13:39:37.530Z,5.95
2023-02-21T13:42:09.510Z,5.53
2023-02-21T13:44:43.306Z,5.75
2023-02-21T13:47:15.346Z,5.78
2023-02-21T13:50:01.074Z,5.95
2023-02-21T13:52:53.910Z,5.18
2023-02-21T13:55:31.440Z,5.38
2023-02-21T13:58:46.728Z,5.72
2023-02-21T14:01:50.079Z,5.55
2023-02-21T14:05:01.248Z,5.10
2023-02-21T14:07:43.613Z,5.43
2023-02-21T14:10:32.944Z,5.10
2023-02-21T14:13:05.080Z,5.03
2023-02-21T14:15:43.117Z,5.13
2023-02-21T14:18:23.553Z,4.63
2023-02-21T14:20:55.157Z,5.10
2023-02-21T14:23:26.769Z,5.53
2023-02-21T14:26:01.183Z,5.32
2023-02-21T14:28:51.797Z,5.50
2023-02-21T14:31:55.041Z,5.40
2023-02-21T14:34:28.690Z,5.35
2023-02-21T14:37:01.107Z,5.05
2023-02-21T14:39:35.609Z,4.97
2023-02-21T14:42:45.061Z,4.95
2023-02-21T14:45:24.901Z,4.95
2023-02-21T14:48:05.434Z,5.00
2023-02-21T14:50:44.776Z,5.20
2023-02-21T14:53:43.998Z,4.78
2023-02-21T14:56:35.638Z,4.78
2023-02-21T14:59:26.848Z,4.90
2023-02-21T15:02:03.926Z,4.78
2023-02-21T15:04:38.261Z,5.50
2023-02-21T15:07:18.740Z,4.00
2023-02-21T15:09:47.190Z,5.07
2023-02-21T15:12:18.272Z,5.07
2023-02-21T15:14:51.247Z,4.82
2023-02-21T15:17:23.087Z,4.95
2023-02-21T15:20:05.594Z,4.85
2023-02-21T15:22:34.847Z,4.22
2023-02-21T15:25:21.031Z,4.60
2023-02-21T15:28:00.711Z,4.25
2023-02-21T15:30:34.239Z,4.53
2023-02-21T15:33:07.759Z,4.80
2023-02-21T15:35:38.541Z,4.20
2023-02-21T15:38:16.114Z,4.03
2023-02-21T15:40:44.747Z,4.88
2023-02-21T15:43:32.296Z,4.38
2023-02-21T15:46:03.026Z,4.43
2023-02-21T15:48:31.177Z,4.05
2023-02-21T15:51:04.792Z,4.35
2023-02-21T15:53:34.172Z,4.18
2023-02-21T15:56:21.572Z,4.20
2023-02-21T15:59:11.609Z,4.40
2023-02-21T16:01:39.962Z,4.38
2023-02-21T16:04:22.466Z,4.00
2023-02-21T16:06:53.347Z,3.53
2023-02-21T16:09:31.349Z,3.97
2023-02-21T16:12:02.248Z,3.85
2023-02-21T16:14:40.295Z,3.75
2023-02-21T16:17:22.437Z,3.85
2023-02-21T16:19:53.849Z,3.60
2023-02-21T16:22:29.323Z,3.30
2023-02-21T16:25:20.741Z,3.65
2023-02-21T16:27:51.243Z,4.32
2023-02-21T16:30:21.565Z,4.28
2023-02-21T16:32:51.166Z,3.22
2023-02-21T16:35:21.571Z,3.67
2023-02-21T16:37:50.802Z,3.65
2023-02-21T16:40:24.896Z,3.45
2023-02-21T16:42:54.056Z,3.38
2023-02-21T16:45:22.182Z,3.47
2023-02-21T16:47:52.158Z,3.13
2023-02-21T16:50:23.497Z,3.70
2023-02-21T16:52:51.358Z,3.25
2023-02-21T16:55:20.959Z,3.05
2023-02-21T16:57:50.253Z,3.20
2023-02-21T17:00:21.866Z,3.17
2023-02-21T17:02:50.024Z,3.63
2023-02-21T17:05:18.551Z,3.65
2023-02-21T17:07:46.329Z,3.00
2023-02-21T17:10:14.377Z,3.85
2023-02-21T17:12:43.653Z,3.97
2023-02-21T17:15:11.980Z,3.33
2023-02-21T17:17:40.546Z,4.10
2023-02-21T17:20:15.564Z,3.88
2023-02-21T17:22:43.369Z,3.83
2023-02-21T17:25:12.144Z,3.53
2023-02-21T17:27:39.887Z,3.35
2023-02-21T17:30:11.355Z,3.50
2023-02-21T17:32:39.268Z,3.70
2023-02-21T17:35:07.335Z,3.78
2023-02-21T17:37:35.084Z,3.35
2023-02-21T17:40:05.069Z,3.60
2023-02-21T17:42:32.872Z,3.90
2023-02-21T17:45:02.211Z,3.80
2023-02-21T17:47:31.383Z,3.63
2023-02-21T17:50:02.503Z,3.40
2023-02-21T17:52:31.197Z,3.47
2023-02-21T17:54:59.138Z,3.55
2023-02-21T17:57:26.892Z,3.88
2023-02-21T17:59:54.795Z,3.17
2023-02-21T18:02:22.537Z,3.60
2023-02-21T18:04:51.707Z,3.67
2023-02-21T18:07:19.529Z,3.65
2023-02-21T18:09:47.600Z,3.65
2023-02-21T18:12:16.391Z,3.72
2023-02-21T18:14:44.202Z,3.95
2023-02-21T18:17:12.562Z,4.10
2023-02-21T18:19:40.341Z,3.35
2023-02-21T18:22:09.747Z,3.28
2023-02-21T18:24:38.690Z,3.67
2023-02-21T18:27:06.458Z,4.38
2023-02-21T18:29:34.240Z,3.67
2023-02-21T18:32:02.027Z,3.30
2023-02-21T18:34:29.815Z,3.42
2023-02-21T18:36:57.652Z,3.50
2023-02-21T18:39:26.954Z,3.25
2023-02-21T18:41:54.835Z,3.38
2023-02-21T18:44:22.772Z,3.72
2023-02-21T18:46:54.028Z,3.63
2023-02-21T18:49:23.037Z,3.60
2023-02-21T18:51:51.402Z,2.83
2023-02-21T18:54:19.831Z,3.20
2023-02-21T18:56:50.379Z,3.38
2023-02-21T18:59:19.153Z,3.30
2023-02-21T19:01:49.705Z,3.42
2023-02-21T19:04:17.548Z,2.72
2023-02-21T19:06:45.516Z,3.72
2023-02-21T19:09:13.830Z,2.95
2023-02-21T19:11:41.751Z,3.40
2023-02-21T19:14:10.931Z,2.95
2023-02-21T19:16:39.059Z,3.05
2023-02-21T19:19:07.091Z,3.05
2023-02-21T19:21:34.978Z,3.30
2023-02-21T19:24:04.118Z,3.17
2023-02-21T19:26:32.090Z,3.20
2023-02-21T19:28:59.926Z,3.05
2023-02-21T19:31:29.240Z,3.33
2023-02-21T19:33:57.134Z,3.42
2023-02-21T19:36:25.025Z,3.05
2023-02-21T19:38:52.838Z,3.10
2023-02-21T19:41:21.677Z,3.20
2023-02-21T19:43:49.482Z,2.83
2023-02-21T19:46:21.960Z,2.95
2023-02-21T19:48:51.602Z,3.17
2023-02-21T19:51:21.734Z,3.35
2023-02-21T19:53:49.737Z,3.05
2023-02-21T19:56:17.866Z,3.13
2023-02-21T19:58:47.192Z,3.00
2023-02-21T20:01:15.680Z,2.97
2023-02-21T20:03:44.315Z,2.90
2023-02-21T20:06:13.517Z,3.38
2023-02-21T20:08:43.916Z,2.90
2023-02-21T20:11:11.809Z,2.92
2023-02-21T20:13:39.610Z,3.40
2023-02-21T20:16:07.379Z,2.83
2023-02-21T20:18:35.153Z,2.83
2023-02-21T20:21:03.115Z,2.92
2023-02-21T20:23:32.229Z,2.95
2023-02-21T20:25:59.961Z,2.95
2023-02-21T20:28:27.839Z,2.90
2023-02-21T20:30:55.719Z,3.10
2023-02-21T20:33:24.691Z,3.78
2023-02-21T20:35:53.016Z,3.30
2023-02-21T20:38:21.496Z,3.17
2023-02-21T20:40:50.771Z,3.20
2023-02-21T20:43:18.531Z,3.30
2023-02-21T20:45:46.356Z,3.42
2023-02-21T20:48:14.306Z,3.35
2023-02-21T20:50:42.575Z,3.35
2023-02-21T20:53:11.303Z,2.50
2023-02-21T20:55:40.252Z,3.03
2023-02-21T20:58:10.430Z,3.20
2023-02-21T21:00:38.542Z,3.05
2023-02-21T21:03:06.939Z,3.22
2023-02-21T21:05:34.732Z,3.17
2023-02-21T21:08:02.499Z,2.78
2023-02-21T21:10:30.294Z,3.42
2023-02-21T21:12:58.270Z,3.25
2023-02-21T21:15:27.714Z,3.45
2023-02-21T21:17:55.879Z,3.50
2023-02-21T21:20:27.035Z,3.88
2023-02-21T21:22:54.846Z,3.67
2023-02-21T21:25:23.593Z,3.05
2023-02-21T21:27:51.956Z,3.63
2023-02-21T21:30:22.876Z,3.70
2023-02-21T21:32:52.117Z,3.70
2023-02-21T21:35:20.826Z,3.38
2023-02-21T21:37:49.116Z,3.85
2023-02-21T21:40:17.476Z,3.60
2023-02-21T21:42:46.809Z,3.72
2023-02-21T21:45:24.602Z,3.75
2023-02-21T21:47:58.402Z,4.43
2023-02-21T21:50:26.762Z,3.58
2023-02-21T21:52:57.449Z,3.67
2023-02-21T21:55:28.603Z,3.45
2023-02-21T21:57:58.691Z,3.70
2023-02-21T22:00:29.034Z,3.88
2023-02-21T22:03:01.917Z,4.45
2023-02-21T22:05:31.579Z,4.20
2023-02-21T22:08:00.348Z,3.80
2023-02-21T22:10:29.143Z,4.15
2023-02-21T22:12:59.961Z,3.75
2023-02-21T22:15:30.232Z,4.10
2023-02-21T22:18:03.800Z,4.28
2023-02-21T22:20:31.821Z,4.57
2023-02-21T22:23:00.051Z,4.93
2023-02-21T22:25:30.245Z,4.70
2023-02-21T22:27:58.957Z,4.63
2023-02-21T22:30:26.879Z,4.63
2023-02-21T22:32:54.691Z,5.07
2023-02-21T22:35:25.150Z,4.47
2023-02-21T22:37:55.202Z,4.50
2023-02-21T22:40:25.799Z,4.65
2023-02-21T22:42:54.374Z,4.82
2023-02-21T22:45:23.638Z,4.45
2023-02-21T22:47:53.925Z,4.38
2023-02-21T22:50:24.243Z,4.70
2023-02-21T22:52:52.447Z,4.40
2023-02-21T22:55:20.203Z,4.53
2023-02-21T22:57:47.951Z,4.03
2023-02-21T23:00:20.215Z,4.38
2023-02-21T23:02:48.641Z,4.35
2023-02-21T23:05:19.397Z,4.47
2023-02-21T23:07:51.292Z,4.40
2023-02-21T23:10:23.686Z,4.30
2023-02-21T23:12:52.600Z,3.97
2023-02-21T23:15:22.320Z,4.03
2023-02-21T23:17:51.528Z,4.15
2023-02-21T23:20:22.609Z,3.85
2023-02-21T23:22:53.731Z,4.03
2023-02-21T23:25:25.497Z,4.32
2023-02-21T23:27:56.626Z,4.40
2023-02-21T23:30:27.512Z,4.22
2023-02-21T23:32:56.548Z,4.45
2023-02-21T23:35:24.330Z,4.40
2023-02-21T23:37:53.494Z,4.55
2023-02-21T23:40:23.471Z,3.97
2023-02-21T23:42:55.457Z,4.07
2023-02-21T23:45:25.017Z,4.15
2023-02-21T23:47:54.927Z,4.18
2023-02-21T23:50:30.416Z,3.75
2023-02-21T23:53:00.152Z,4.47
2023-02-21T23:55:29.885Z,4.45
2023-02-21T23:57:59.847Z,4.00
